Lawtey, Florida
Current Conditions -  °F | °C
As of 10:50 AM on Thursday 30 Oct 2014 (Local Time) from KVQQ Reporting Station
Clear Clear  
Wind Chill: 73°   Ceiling: Unl
Heat Index: 73°   Visibility: 10mi
Dew Point: 64°   Wind: 3mph
Humidity: 73%   Direction: 360°N
Pressure: 30"   Gusts: NA
Location:  30.04°N, 82.07°W
Report Text: KVQQ 301450Z 36003KT 10SM CLR 23/18 A3000
Loading
Personal Weather Stations






























Interactive Weather Map
Tropical Storm Tracking
New forecast layout! Learn more

10-Day Weather Forecast

Advertisements
Track Severe Weather on mobile